Shawnee, Kansas
Current Conditions -  °F | °C
As of 1:54 AM on Sunday 23 Nov 2014 (Local Time) from KMKC Reporting Station
Overcast Overcast  
Wind Chill: 55°   Ceiling: 1200
Heat Index: 55°   Visibility: 10mi
Dew Point: 50°   Wind: 8mph
Humidity: 83%   Direction: 170°S
Pressure: 29.64"   Gusts: NA
Location:  39.02°N, 94.71°W
Report Text: KMKC 230754Z 17007KT 10SM BKN012 OVC025 13/10 A2964 RMK AO2 SLP034 T01280100
Loading
Personal Weather Stations






























Interactive Weather Map New forecast layout! Learn more

10-Day Weather Forecast

Advertisements
Track Severe Weather on mobile